Time;durP1;ratioP1;P1;durP2;ratioP2;P2;SDS_P1;SDS_P2;PMS_P1;PMS_P2;Temp;Humidity;BMP_temperature;BMP_pressure;BME280_temperature;BME280_humidity;BME280_pressure;Samples;Min_cycle;Max_cycle;Signal;HPM_P1;HPM_P2
2023/08/26 00:00:32;;;;;;;22.17;19.13;;;19.50;1.00;;;;;;4954776;28;20202;-85
2023/08/26 00:02:57;;;;;;;24.47;20.00;;;19.50;1.00;;;;;;4953635;28;20227;-85
2023/08/26 00:05:23;;;;;;;24.63;19.40;;;19.50;1.00;;;;;;4953525;29;20214;-85
2023/08/26 00:07:49;;;;;;;21.87;18.87;;;19.40;1.00;;;;;;4953516;29;20200;-84
2023/08/26 00:10:14;;;;;;;23.90;17.60;;;19.40;1.00;;;;;;4952232;28;20193;-85
2023/08/26 00:12:40;;;;;;;17.47;14.90;;;19.30;1.00;;;;;;4951108;28;20216;-85
2023/08/26 00:15:06;;;;;;;15.57;13.63;;;19.20;99.90;;;;;;4952774;28;20251;-85
2023/08/26 00:17:33;;;;;;;13.97;11.93;;;19.20;99.90;;;;;;4950288;28;20602;-85
2023/08/26 00:19:58;;;;;;;13.80;10.83;;;19.10;35.30;;;;;;4951429;28;20986;-85
2023/08/26 00:22:24;;;;;;;12.73;10.13;;;19.00;1.00;;;;;;4952409;28;20490;-85
2023/08/26 00:24:50;;;;;;;15.23;9.57;;;18.90;1.00;;;;;;4952078;29;20193;-85
2023/08/26 00:27:15;;;;;;;10.57;8.50;;;18.80;99.90;;;;;;4955951;28;20492;-85
2023/08/26 00:29:42;;;;;;;11.07;8.20;;;18.70;99.90;;;;;;4951250;28;20283;-85
2023/08/26 00:32:07;;;;;;;8.97;7.30;;;18.60;99.90;;;;;;4952538;28;20214;-85
2023/08/26 00:34:33;;;;;;;10.30;7.10;;;18.50;1.00;;;;;;4951100;29;20447;-85
2023/08/26 00:36:58;;;;;;;14.33;8.60;;;18.40;1.00;;;;;;4952790;28;20185;-85
2023/08/26 00:39:24;;;;;;;9.07;7.90;;;18.30;1.00;;;;;;4951520;29;20286;-85
2023/08/26 00:41:49;;;;;;;7.50;6.30;;;18.20;1.00;;;;;;4951596;28;20211;-84
2023/08/26 00:44:15;;;;;;;11.57;7.67;;;18.10;1.00;;;;;;4951016;28;20188;-85
2023/08/26 00:46:40;;;;;;;12.40;7.10;;;18.00;1.00;;;;;;4949429;28;20200;-85
2023/08/26 00:49:07;;;;;;;8.80;6.20;;;17.90;1.00;;;;;;4952453;28;20199;-85
2023/08/26 00:51:33;;;;;;;8.10;5.10;;;17.80;1.00;;;;;;4948916;28;20677;-85
2023/08/26 00:53:59;;;;;;;8.70;6.10;;;17.70;99.90;;;;;;4951577;28;20530;-85
2023/08/26 00:56:25;;;;;;;9.77;4.97;;;17.60;99.90;;;;;;4955792;28;20187;-85
2023/08/26 00:58:51;;;;;;;5.27;4.30;;;17.60;95.20;;;;;;4952143;28;20651;-84
2023/08/26 01:01:17;;;;;;;12.10;5.00;;;17.50;1.00;;;;;;4951315;28;20464;-85
2023/08/26 01:03:42;;;;;;;12.60;4.30;;;17.40;99.90;;;;;;4951792;29;20570;-85
2023/08/26 01:06:08;;;;;;;5.43;3.17;;;17.40;99.90;;;;;;4949748;28;20491;-85
2023/08/26 01:08:33;;;;;;;3.60;2.97;;;17.20;1.00;;;;;;4950226;28;20202;-84
2023/08/26 01:11:21;;;;;;;6.77;3.50;;;17.20;1.00;;;;;;4948227;28;20286;-85
2023/08/26 01:14:21;;;;;;;6.63;3.57;;;17.10;1.00;;;;;;4949633;28;20203;-84
2023/08/26 01:16:47;;;;;;;6.50;4.20;;;17.10;1.00;;;;;;4948736;28;20970;-84
2023/08/26 01:19:31;;;;;;;5.03;3.27;;;17.00;1.00;;;;;;4952059;29;20576;-85
2023/08/26 01:22:01;;;;;;;7.43;4.10;;;16.90;82.80;;;;;;4952310;28;20461;-85
2023/08/26 01:24:26;;;;;;;4.03;3.17;;;16.90;99.90;;;;;;4952450;29;20439;-85
2023/08/26 01:26:52;;;;;;;6.23;4.03;;;16.80;1.00;;;;;;4951138;28;20440;-84
2023/08/26 01:29:18;;;;;;;4.90;3.40;;;16.70;1.00;;;;;;4965411;28;20193;-84
2023/08/26 01:31:47;;;;;;;6.27;3.50;;;16.70;90.50;;;;;;4950371;28;20702;-85
2023/08/26 01:34:22;;;;;;;9.17;4.33;;;16.70;99.90;;;;;;4951630;28;20193;-84
2023/08/26 01:36:50;;;;;;;4.87;3.93;;;16.60;99.90;;;;;;4951486;28;20475;-84
2023/08/26 01:39:16;;;;;;;6.50;3.57;;;16.60;1.00;;;;;;4952113;29;20500;-85
2023/08/26 01:41:50;;;;;;;3.93;3.20;;;16.50;1.00;;;;;;4952082;28;20640;-86
2023/08/26 01:44:17;;;;;;;4.63;3.27;;;16.50;1.00;;;;;;4948857;28;20499;-85
2023/08/26 01:46:44;;;;;;;8.10;2.97;;;16.40;1.00;;;;;;4948361;28;20444;-85
2023/08/26 01:49:10;;;;;;;4.30;3.17;;;16.30;99.90;;;;;;4951748;29;20908;-85
2023/08/26 01:51:35;;;;;;;8.50;3.43;;;16.30;99.90;;;;;;4951122;28;20520;-85
2023/08/26 01:54:02;;;;;;;12.43;3.50;;;16.30;99.90;;;;;;4951105;29;20197;-85
2023/08/26 01:56:27;;;;;;;4.80;3.13;;;16.20;99.90;;;;;;4956198;28;20405;-84
2023/08/26 01:58:53;;;;;;;4.13;2.83;;;16.20;1.00;;;;;;4952766;28;20576;-85
2023/08/26 02:01:18;;;;;;;3.50;2.70;;;16.10;1.00;;;;;;4950244;28;20215;-85
2023/08/26 02:03:44;;;;;;;3.70;3.00;;;16.10;29.90;;;;;;4951240;28;20188;-84
2023/08/26 02:06:10;;;;;;;3.40;2.80;;;16.10;99.90;;;;;;4950609;29;20195;-84
2023/08/26 02:08:35;;;;;;;4.27;2.60;;;16.00;99.90;;;;;;4950602;29;20679;-85
2023/08/26 02:11:00;;;;;;;4.00;2.90;;;16.00;99.90;;;;;;4950551;28;20295;-84
2023/08/26 02:13:26;;;;;;;7.13;3.33;;;16.00;99.90;;;;;;4951394;29;20332;-85
2023/08/26 02:15:52;;;;;;;9.47;3.30;;;16.00;99.90;;;;;;4951031;29;20566;-85
2023/08/26 02:18:17;;;;;;;6.47;2.93;;;16.00;99.90;;;;;;4946997;28;20574;-85
2023/08/26 02:20:43;;;;;;;6.57;3.77;;;15.90;99.90;;;;;;4951159;28;20202;-85
2023/08/26 02:23:12;;;;;;;10.30;4.30;;;15.90;1.00;;;;;;4948984;29;20671;-85
2023/08/26 02:25:41;;;;;;;10.57;4.00;;;15.90;99.90;;;;;;4949267;28;20430;-84
2023/08/26 02:28:07;;;;;;;7.73;3.47;;;15.80;99.90;;;;;;4951893;28;20954;-84
2023/08/26 02:30:33;;;;;;;7.27;3.30;;;15.80;99.90;;;;;;4951036;28;20439;-85
2023/08/26 02:33:00;;;;;;;6.33;3.10;;;15.80;1.00;;;;;;4948300;28;20193;-84
2023/08/26 02:35:25;;;;;;;5.93;3.60;;;15.70;1.00;;;;;;4951222;28;20499;-85
2023/08/26 02:37:51;;;;;;;4.87;3.13;;;15.70;1.00;;;;;;4950768;29;20440;-84
2023/08/26 02:40:16;;;;;;;5.37;3.00;;;15.70;29.80;;;;;;4950703;29;20260;-85
2023/08/26 02:42:42;;;;;;;8.10;3.40;;;15.60;91.70;;;;;;4949820;28;20690;-84
2023/08/26 02:45:07;;;;;;;3.50;3.10;;;15.60;99.90;;;;;;4950088;29;20195;-85
2023/08/26 02:47:33;;;;;;;4.57;3.20;;;15.60;99.90;;;;;;4949557;28;20679;-84
2023/08/26 02:49:58;;;;;;;7.67;3.50;;;15.50;99.90;;;;;;4950550;28;20192;-85
2023/08/26 02:52:24;;;;;;;7.97;3.10;;;15.50;99.90;;;;;;4947042;28;20244;-84
2023/08/26 02:54:49;;;;;;;6.07;3.77;;;15.50;99.90;;;;;;4948144;28;20190;-84
2023/08/26 02:57:16;;;;;;;9.47;3.90;;;15.50;99.90;;;;;;4955265;28;20729;-84
2023/08/26 02:59:42;;;;;;;11.10;3.67;;;15.40;99.90;;;;;;4950506;28;20294;-85
2023/08/26 03:02:08;;;;;;;6.93;3.70;;;15.40;99.90;;;;;;4950599;28;20464;-85
2023/08/26 03:04:34;;;;;;;6.37;3.70;;;15.40;1.00;;;;;;4953432;29;20443;-85
2023/08/26 03:06:59;;;;;;;7.43;3.83;;;15.40;1.00;;;;;;4950802;29;20192;-84
2023/08/26 03:09:27;;;;;;;6.77;3.57;;;15.40;1.00;;;;;;4947739;28;20444;-84
2023/08/26 03:11:54;;;;;;;6.43;4.00;;;15.40;1.00;;;;;;4955662;28;20209;-85
2023/08/26 03:14:19;;;;;;;8.10;3.40;;;15.40;1.00;;;;;;4956362;28;20501;-84
2023/08/26 03:16:45;;;;;;;7.27;3.63;;;15.40;99.90;;;;;;4953950;29;20526;-84
2023/08/26 03:19:10;;;;;;;4.60;3.00;;;15.40;99.90;;;;;;4954582;28;21610;-84
2023/08/26 03:21:36;;;;;;;7.43;3.33;;;15.40;99.90;;;;;;4954996;28;20216;-85
2023/08/26 03:24:01;;;;;;;6.53;2.90;;;15.50;99.90;;;;;;4953105;28;20195;-84
2023/08/26 03:26:27;;;;;;;8.10;3.13;;;15.50;1.00;;;;;;4950877;28;20268;-85
2023/08/26 03:28:52;;;;;;;14.37;3.30;;;15.50;1.00;;;;;;4968339;28;20192;-84
2023/08/26 03:31:18;;;;;;;5.97;3.10;;;15.50;99.90;;;;;;4953612;28;20234;-85
2023/08/26 03:33:43;;;;;;;6.20;3.30;;;15.60;99.90;;;;;;4953141;29;20215;-85
2023/08/26 03:36:09;;;;;;;10.10;3.30;;;15.60;99.90;;;;;;4953331;28;20316;-85
2023/08/26 03:38:35;;;;;;;16.73;4.43;;;15.60;99.90;;;;;;4954199;28;20248;-85
2023/08/26 03:41:05;;;;;;;9.07;3.10;;;15.60;1.00;;;;;;4954389;28;20455;-84
2023/08/26 03:43:31;;;;;;;7.63;3.20;;;15.60;1.00;;;;;;4953069;29;20431;-84
2023/08/26 03:45:57;;;;;;;7.13;3.23;;;15.70;1.00;;;;;;4952171;28;20525;-84
2023/08/26 03:48:22;;;;;;;7.00;3.33;;;15.70;1.00;;;;;;4953377;28;20467;-85
2023/08/26 03:50:53;;;;;;;5.70;3.10;;;15.60;1.00;;;;;;4952884;28;20189;-85
2023/08/26 03:53:19;;;;;;;4.53;2.93;;;15.60;1.00;;;;;;4951581;29;20204;-84
2023/08/26 03:55:45;;;;;;;7.43;2.80;;;15.60;1.00;;;;;;4952911;28;20823;-85
2023/08/26 03:58:11;;;;;;;5.07;2.90;;;15.60;13.20;;;;;;4953179;28;20551;-86
2023/08/26 04:00:37;;;;;;;5.20;2.87;;;15.60;48.40;;;;;;4952099;28;20873;-86
2023/08/26 04:03:04;;;;;;;6.93;3.20;;;15.60;99.90;;;;;;4952414;28;20189;-86
2023/08/26 04:05:31;;;;;;;10.33;3.37;;;15.60;99.90;;;;;;4953730;29;20917;-86
2023/08/26 04:07:57;;;;;;;5.47;2.37;;;15.60;99.90;;;;;;4952188;29;20946;-87
2023/08/26 04:10:22;;;;;;;5.03;2.50;;;15.60;99.90;;;;;;4952789;29;20451;-87
2023/08/26 04:12:48;;;;;;;4.03;2.27;;;15.60;99.90;;;;;;4953666;28;20211;-86
2023/08/26 04:15:14;;;;;;;5.83;3.00;;;15.60;99.90;;;;;;4955224;28;20658;-86
2023/08/26 04:17:41;;;;;;;6.00;3.13;;;15.60;99.90;;;;;;4949680;28;20184;-86
2023/08/26 04:20:07;;;;;;;4.40;2.40;;;15.60;99.90;;;;;;4952182;29;20514;-86
2023/08/26 04:22:33;;;;;;;3.13;2.40;;;15.50;99.90;;;;;;4952782;28;20492;-87
2023/08/26 04:24:58;;;;;;;9.77;2.60;;;15.50;99.90;;;;;;4953109;29;20989;-86
2023/08/26 04:27:24;;;;;;;5.57;2.77;;;15.50;99.90;;;;;;4967826;28;20196;-86
2023/08/26 04:29:50;;;;;;;8.00;3.00;;;15.40;1.00;;;;;;4951734;28;20231;-87
2023/08/26 04:32:17;;;;;;;6.93;2.93;;;15.40;1.00;;;;;;4952419;29;20240;-86
2023/08/26 04:34:43;;;;;;;6.50;2.80;;;15.40;1.00;;;;;;4952254;28;20199;-86
2023/08/26 04:37:08;;;;;;;8.67;2.90;;;15.40;1.00;;;;;;4953333;28;20458;-88
2023/08/26 04:39:34;;;;;;;3.60;2.67;;;15.40;1.00;;;;;;4954509;29;20770;-86
2023/08/26 04:42:00;;;;;;;5.00;2.50;;;15.40;1.00;;;;;;4953185;28;20208;-87
2023/08/26 04:44:26;;;;;;;5.43;2.77;;;15.40;1.00;;;;;;4952330;28;20634;-87
2023/08/26 04:46:53;;;;;;;5.30;2.57;;;15.40;1.00;;;;;;4951431;29;20451;-87
2023/08/26 04:49:19;;;;;;;5.20;2.43;;;15.40;1.00;;;;;;4952097;29;20205;-87
2023/08/26 04:51:52;;;;;;;3.77;2.07;;;15.40;1.00;;;;;;4953611;28;20503;-86
2023/08/26 04:54:18;;;;;;;3.80;2.33;;;15.40;1.00;;;;;;4951719;28;20651;-87
2023/08/26 04:56:44;;;;;;;3.83;2.37;;;15.40;1.00;;;;;;4949299;28;20451;-86
2023/08/26 04:59:09;;;;;;;6.10;2.37;;;15.50;99.90;;;;;;4952306;28;20299;-87
2023/08/26 05:01:35;;;;;;;3.03;2.10;;;15.60;99.90;;;;;;4952661;28;20211;-86
2023/08/26 05:04:00;;;;;;;6.30;2.67;;;15.60;99.90;;;;;;4951988;29;20191;-87
2023/08/26 05:06:26;;;;;;;6.70;2.10;;;15.60;1.00;;;;;;4951359;29;20694;-86
2023/08/26 05:08:51;;;;;;;3.03;2.00;;;15.70;1.00;;;;;;4951589;28;20223;-87
2023/08/26 05:11:17;;;;;;;4.33;1.90;;;15.80;99.90;;;;;;4949804;28;20214;-87
2023/08/26 05:13:42;;;;;;;6.47;2.77;;;15.80;1.00;;;;;;4950749;28;20193;-86
2023/08/26 05:16:08;;;;;;;4.23;2.17;;;15.80;1.00;;;;;;4951377;29;20203;-86
2023/08/26 05:18:34;;;;;;;3.03;1.70;;;15.90;33.10;;;;;;4944240;29;20200;-86
2023/08/26 05:21:00;;;;;;;5.10;2.20;;;15.90;1.00;;;;;;4950020;28;20204;-87
2023/08/26 05:23:25;;;;;;;4.37;1.70;;;15.90;1.00;;;;;;4952129;28;20436;-86
2023/08/26 05:25:51;;;;;;;2.13;1.63;;;15.90;99.90;;;;;;4956995;28;20188;-87
2023/08/26 05:28:16;;;;;;;3.50;1.60;;;16.00;99.90;;;;;;4951963;28;20255;-87
2023/08/26 05:30:42;;;;;;;6.63;2.40;;;16.10;1.00;;;;;;4951677;28;20192;-86
2023/08/26 05:33:07;;;;;;;3.40;2.10;;;16.10;99.90;;;;;;4951640;28;20190;-87
2023/08/26 05:35:33;;;;;;;6.30;2.20;;;16.30;1.00;;;;;;4949832;28;20191;-88
2023/08/26 05:37:59;;;;;;;4.90;1.97;;;17.50;99.90;;;;;;4950905;29;20192;-87
2023/08/26 05:40:28;;;;;;;3.37;1.50;;;19.10;99.90;;;;;;4952006;29;20189;-86
2023/08/26 05:42:58;;;;;;;4.53;1.50;;;18.80;99.90;;;;;;4947582;28;20298;-87
2023/08/26 05:45:24;;;;;;;2.33;1.67;;;19.90;99.90;;;;;;4964059;28;20434;-88
2023/08/26 05:47:51;;;;;;;4.77;1.70;;;22.50;1.00;;;;;;4948156;29;20488;-87
2023/08/26 05:50:16;;;;;;;3.03;1.63;;;24.40;1.00;;;;;;4949725;29;20528;-87
2023/08/26 05:52:42;;;;;;;3.80;1.57;;;26.70;1.00;;;;;;4950659;28;20563;-87
2023/08/26 05:55:09;;;;;;;3.13;1.40;;;28.60;1.00;;;;;;4951536;28;20193;-87
2023/08/26 05:57:35;;;;;;;2.70;1.50;;;30.30;1.00;;;;;;4956128;28;20181;-88
2023/08/26 06:00:00;;;;;;;2.90;1.17;;;31.70;1.00;;;;;;4953802;28;20475;-89
2023/08/26 06:02:26;;;;;;;4.13;1.30;;;32.80;1.00;;;;;;4950926;28;20208;-88
2023/08/26 06:04:51;;;;;;;4.03;1.40;;;35.00;1.00;;;;;;4950058;29;20185;-88
2023/08/26 06:07:18;;;;;;;4.03;0.93;;;36.70;1.00;;;;;;4950384;29;20208;-88
2023/08/26 06:09:43;;;;;;;3.37;1.20;;;38.30;1.00;;;;;;4949933;28;20487;-88
2023/08/26 06:12:09;;;;;;;6.87;1.17;;;39.50;1.00;;;;;;4967941;28;20496;-89
2023/08/26 06:14:34;;;;;;;4.87;1.00;;;40.80;1.00;;;;;;4952134;28;20193;-88
2023/08/26 06:17:00;;;;;;;1.70;0.83;;;41.90;1.00;;;;;;4947797;28;20214;-88
2023/08/26 06:19:25;;;;;;;2.30;0.90;;;42.90;1.00;;;;;;4956885;28;20208;-88
2023/08/26 06:21:51;;;;;;;5.53;0.97;;;43.70;1.00;;;;;;4952382;28;20293;-88
2023/08/26 06:24:16;;;;;;;4.17;1.43;;;44.20;1.00;;;;;;4950266;28;20557;-86
2023/08/26 06:26:44;;;;;;;7.33;1.43;;;44.90;1.00;;;;;;4960876;28;20685;-87
2023/08/26 06:29:13;;;;;;;3.27;1.30;;;45.40;1.00;;;;;;4952279;28;20748;-89
2023/08/26 06:31:39;;;;;;;2.63;1.17;;;45.50;1.00;;;;;;4962710;28;20456;-86
2023/08/26 06:34:04;;;;;;;3.50;1.23;;;46.10;1.00;;;;;;4942037;29;20463;-87
2023/08/26 06:36:30;;;;;;;2.57;1.20;;;46.10;1.00;;;;;;4955596;28;20424;-87
2023/08/26 06:38:55;;;;;;;2.40;1.17;;;43.40;99.90;;;;;;4956650;28;20216;-87
2023/08/26 06:41:21;;;;;;;2.53;0.97;;;39.80;99.90;;;;;;4960632;28;20570;-87
2023/08/26 06:43:46;;;;;;;3.53;1.10;;;39.90;99.90;;;;;;4951199;28;20212;-87
2023/08/26 06:46:13;;;;;;;4.20;1.27;;;41.30;99.90;;;;;;4953336;28;20268;-87
2023/08/26 06:48:38;;;;;;;1.83;1.00;;;43.10;99.90;;;;;;4950745;28;20682;-87
2023/08/26 06:51:04;;;;;;;2.80;1.10;;;44.70;99.90;;;;;;4954895;28;20499;-88
2023/08/26 06:53:29;;;;;;;2.60;1.10;;;45.90;99.90;;;;;;4953828;28;20222;-87
2023/08/26 06:55:55;;;;;;;2.60;1.00;;;46.60;99.90;;;;;;4954486;28;20312;-88
2023/08/26 06:58:23;;;;;;;2.93;1.03;;;47.30;99.90;;;;;;4955177;28;20222;-88
2023/08/26 07:00:49;;;;;;;7.30;1.03;;;47.50;99.90;;;;;;4954765;28;20187;-87
2023/08/26 07:03:14;;;;;;;3.40;1.17;;;47.60;99.90;;;;;;4954580;29;20820;-88
2023/08/26 07:05:44;;;;;;;3.07;0.80;;;47.60;99.90;;;;;;4953051;28;20196;-88
2023/08/26 07:08:09;;;;;;;2.90;1.10;;;47.60;99.90;;;;;;4955713;28;20188;-88
2023/08/26 07:10:35;;;;;;;3.10;1.10;;;47.60;99.90;;;;;;4953356;28;20439;-88
2023/08/26 07:13:00;;;;;;;2.63;0.83;;;48.50;99.90;;;;;;4953465;29;20188;-88
2023/08/26 07:15:26;;;;;;;1.73;0.60;;;48.80;99.90;;;;;;4953552;28;20180;-88
2023/08/26 07:17:53;;;;;;;2.23;1.00;;;48.90;99.90;;;;;;4951777;28;20172;-88
2023/08/26 07:20:18;;;;;;;2.90;1.00;;;48.90;99.90;;;;;;4954378;28;20242;-88
2023/08/26 07:22:44;;;;;;;3.30;1.00;;;49.30;99.90;;;;;;4949969;28;20491;-87
2023/08/26 07:25:10;;;;;;;2.30;1.00;;;48.90;99.90;;;;;;4953035;28;20583;-86
2023/08/26 07:27:35;;;;;;;4.13;1.30;;;48.00;99.90;;;;;;4954904;28;20267;-86
2023/08/26 07:30:00;;;;;;;2.33;1.03;;;46.70;99.90;;;;;;4954745;28;20288;-86
2023/08/26 07:32:26;;;;;;;2.83;1.20;;;46.30;99.90;;;;;;4954356;28;20209;-86
2023/08/26 07:34:52;;;;;;;1.83;0.90;;;46.50;99.90;;;;;;4954569;28;20196;-85
2023/08/26 07:37:18;;;;;;;2.50;0.97;;;46.60;99.90;;;;;;4955048;29;20192;-85
2023/08/26 07:39:43;;;;;;;3.23;1.10;;;46.20;99.90;;;;;;4948400;28;20209;-86
2023/08/26 07:42:09;;;;;;;3.27;1.10;;;46.30;99.90;;;;;;4953446;28;20220;-86
2023/08/26 07:44:34;;;;;;;2.73;1.23;;;46.30;99.90;;;;;;4952361;28;20185;-86
2023/08/26 07:47:00;;;;;;;2.53;1.10;;;46.30;99.90;;;;;;4953375;28;20343;-85
2023/08/26 07:49:25;;;;;;;3.63;1.13;;;46.70;99.90;;;;;;4949250;28;20193;-86
2023/08/26 07:51:51;;;;;;;3.90;1.47;;;46.20;99.90;;;;;;4953824;28;20220;-86
2023/08/26 07:54:16;;;;;;;3.40;1.23;;;46.50;99.90;;;;;;4952219;28;20199;-86
2023/08/26 07:56:42;;;;;;;2.17;1.07;;;46.30;99.90;;;;;;4952798;28;20211;-86
2023/08/26 07:59:07;;;;;;;3.20;1.07;;;46.50;99.90;;;;;;4954053;28;20212;-86
2023/08/26 08:01:33;;;;;;;1.73;0.80;;;46.60;99.90;;;;;;4953432;28;20679;-86
2023/08/26 08:03:58;;;;;;;2.13;1.10;;;46.20;99.90;;;;;;4952727;28;20600;-86
2023/08/26 08:06:24;;;;;;;1.80;1.00;;;46.00;99.90;;;;;;4952632;28;20222;-86
2023/08/26 08:08:49;;;;;;;1.97;0.80;;;45.70;99.90;;;;;;4951678;28;20177;-86
2023/08/26 08:11:14;;;;;;;1.73;0.87;;;46.70;99.90;;;;;;4949603;28;20215;-86
2023/08/26 08:13:40;;;;;;;1.77;0.90;;;46.70;99.90;;;;;;4950097;28;20684;-85
2023/08/26 08:16:06;;;;;;;1.80;0.63;;;46.40;99.90;;;;;;4939233;28;20196;-85
2023/08/26 08:18:31;;;;;;;2.13;0.90;;;46.50;99.90;;;;;;4951442;28;20220;-86
2023/08/26 08:20:57;;;;;;;3.33;0.93;;;46.70;99.90;;;;;;4950711;28;20247;-85
2023/08/26 08:23:23;;;;;;;1.70;0.90;;;46.80;99.90;;;;;;4951977;28;20181;-85
2023/08/26 08:25:48;;;;;;;3.00;0.90;;;47.30;99.90;;;;;;4952147;28;20177;-85
2023/08/26 08:28:13;;;;;;;1.70;0.90;;;47.60;99.90;;;;;;4950454;28;20191;-85
2023/08/26 08:30:39;;;;;;;1.30;0.80;;;47.30;99.90;;;;;;4966864;28;20579;-84
2023/08/26 08:33:04;;;;;;;1.43;0.80;;;46.70;99.90;;;;;;4948409;28;20180;-85
2023/08/26 08:35:30;;;;;;;2.60;0.90;;;46.80;99.90;;;;;;4950475;28;20247;-85
2023/08/26 08:37:55;;;;;;;2.13;0.80;;;47.20;99.90;;;;;;4950413;28;20277;-85
2023/08/26 08:40:22;;;;;;;5.13;0.90;;;47.30;99.90;;;;;;4950106;28;20291;-85
2023/08/26 08:42:50;;;;;;;1.30;0.70;;;46.90;99.90;;;;;;4951391;28;20287;-86
2023/08/26 08:45:16;;;;;;;2.03;0.70;;;46.30;99.90;;;;;;4951174;28;20421;-85
2023/08/26 08:47:42;;;;;;;2.23;0.80;;;46.50;99.90;;;;;;4949445;28;20490;-85
2023/08/26 08:50:08;;;;;;;1.27;0.60;;;46.00;99.90;;;;;;4950650;28;20449;-85
2023/08/26 08:52:34;;;;;;;1.90;0.80;;;46.20;99.90;;;;;;4951677;28;20228;-85
2023/08/26 08:55:00;;;;;;;1.30;0.60;;;46.40;99.90;;;;;;4952368;28;20806;-85
2023/08/26 08:57:30;;;;;;;4.37;0.90;;;45.60;99.90;;;;;;4954290;28;20204;-85
2023/08/26 08:59:57;;;;;;;3.63;1.00;;;45.40;99.90;;;;;;4950611;28;20235;-85
2023/08/26 09:02:24;;;;;;;2.03;1.00;;;45.90;99.90;;;;;;4950163;28;20523;-85
2023/08/26 09:04:49;;;;;;;2.30;1.20;;;45.40;99.90;;;;;;4947936;28;20448;-86
2023/08/26 09:07:17;;;;;;;2.40;0.90;;;45.10;99.90;;;;;;4954939;28;20451;-85
2023/08/26 09:09:42;;;;;;;1.50;0.67;;;45.40;99.90;;;;;;4947928;28;20196;-85
2023/08/26 09:12:08;;;;;;;2.50;0.80;;;45.50;99.90;;;;;;4951044;28;20974;-86
2023/08/26 09:14:33;;;;;;;2.80;0.97;;;45.90;99.90;;;;;;4949428;28;20192;-85
2023/08/26 09:17:17;;;;;;;2.03;0.83;;;46.10;99.90;;;;;;4951289;28;20197;-85
2023/08/26 09:19:58;;;;;;;1.77;0.87;;;46.30;99.90;;;;;;4948556;28;20212;-85
2023/08/26 09:22:25;;;;;;;2.70;0.70;;;46.20;99.90;;;;;;4944847;28;20479;-86
2023/08/26 09:24:59;;;;;;;1.70;0.70;;;45.90;99.90;;;;;;4950759;28;22174;-86
2023/08/26 09:27:25;;;;;;;3.87;0.90;;;45.90;99.90;;;;;;4949319;28;20455;-86
2023/08/26 09:29:54;;;;;;;1.00;0.53;;;45.90;99.90;;;;;;4947723;28;20432;-85
2023/08/26 09:32:39;;;;;;;2.93;1.10;;;45.80;99.90;;;;;;4949487;28;20481;-86
2023/08/26 09:35:12;;;;;;;2.10;0.80;;;45.90;99.90;;;;;;4949648;28;20440;-85
2023/08/26 09:37:38;;;;;;;2.30;0.90;;;46.20;99.90;;;;;;4948732;28;20441;-85
2023/08/26 09:40:04;;;;;;;1.27;0.60;;;45.60;99.90;;;;;;4947190;28;20468;-85
2023/08/26 09:42:30;;;;;;;1.63;1.10;;;45.50;99.90;;;;;;4949384;28;20999;-85
2023/08/26 09:44:56;;;;;;;1.60;1.17;;;45.20;99.90;;;;;;4948869;28;20444;-86
2023/08/26 09:47:27;;;;;;;2.70;0.90;;;45.10;99.90;;;;;;4949723;28;20181;-86
2023/08/26 09:49:52;;;;;;;2.60;1.13;;;45.20;99.90;;;;;;4950196;28;20527;-85
2023/08/26 09:52:18;;;;;;;1.67;0.67;;;45.60;99.90;;;;;;4948978;28;20587;-86
2023/08/26 09:54:45;;;;;;;2.10;0.70;;;44.70;99.90;;;;;;4949833;28;20199;-85
2023/08/26 09:57:11;;;;;;;2.07;0.80;;;44.40;99.90;;;;;;4946346;28;20178;-86
2023/08/26 09:59:38;;;;;;;2.60;0.80;;;44.30;99.90;;;;;;4951659;28;20539;-85
2023/08/26 10:02:13;;;;;;;1.87;0.70;;;44.70;99.90;;;;;;4950778;28;20228;-85
2023/08/26 10:04:39;;;;;;;1.10;0.70;;;45.50;99.90;;;;;;4948982;29;20439;-86
2023/08/26 10:07:05;;;;;;;1.10;0.83;;;45.70;99.90;;;;;;4950619;29;20866;-86
2023/08/26 10:09:41;;;;;;;2.60;0.90;;;45.70;99.90;;;;;;4949799;28;20184;-84
2023/08/26 10:12:12;;;;;;;1.83;0.90;;;46.30;99.90;;;;;;4950249;29;20249;-85
2023/08/26 10:14:40;;;;;;;1.30;0.80;;;46.40;99.90;;;;;;4944301;28;20499;-85
2023/08/26 10:17:11;;;;;;;1.23;0.60;;;46.40;99.90;;;;;;4949768;28;20459;-86
2023/08/26 10:19:38;;;;;;;2.33;1.00;;;46.20;99.90;;;;;;4938223;28;20986;-85
2023/08/26 10:22:04;;;;;;;1.50;0.87;;;46.20;99.90;;;;;;4943889;28;20563;-85
2023/08/26 10:24:30;;;;;;;2.10;1.20;;;45.60;99.90;;;;;;4946298;28;20456;-86
2023/08/26 10:26:56;;;;;;;3.07;1.13;;;44.80;99.90;;;;;;4946096;28;20441;-86
2023/08/26 10:29:22;;;;;;;1.50;0.80;;;44.20;99.90;;;;;;4944710;28;20301;-85
2023/08/26 10:31:47;;;;;;;1.80;0.73;;;43.60;99.90;;;;;;4952753;28;20489;-85
2023/08/26 10:34:14;;;;;;;1.50;0.70;;;42.80;99.90;;;;;;4946217;28;20291;-85
2023/08/26 10:36:45;;;;;;;1.90;0.80;;;43.00;99.90;;;;;;4948852;29;20192;-84
2023/08/26 10:39:19;;;;;;;1.90;0.90;;;41.60;99.90;;;;;;4948079;28;20476;-85
2023/08/26 10:42:13;;;;;;;2.10;1.30;;;40.10;99.90;;;;;;4945393;28;20850;-85
2023/08/26 10:44:40;;;;;;;2.47;1.30;;;39.20;99.90;;;;;;4947835;28;20445;-85
2023/08/26 10:47:07;;;;;;;5.27;1.20;;;38.50;99.90;;;;;;4946123;28;20445;-84
2023/08/26 10:49:35;;;;;;;2.13;0.80;;;38.80;99.90;;;;;;4950895;28;20534;-84
2023/08/26 10:52:17;;;;;;;2.30;0.77;;;39.70;99.90;;;;;;4943474;28;20480;-85
2023/08/26 10:54:46;;;;;;;2.80;0.90;;;40.70;99.90;;;;;;4946720;28;20444;-83
2023/08/26 10:57:12;;;;;;;2.73;1.00;;;41.60;99.90;;;;;;4948504;28;20444;-85
2023/08/26 10:59:40;;;;;;;2.40;1.10;;;41.70;99.90;;;;;;4949473;28;20474;-85
2023/08/26 11:02:08;;;;;;;2.23;0.80;;;42.10;99.90;;;;;;4944178;28;20450;-85
2023/08/26 11:04:44;;;;;;;2.63;0.97;;;41.50;99.90;;;;;;4950685;28;20435;-85
2023/08/26 11:07:20;;;;;;;2.43;0.80;;;39.30;99.90;;;;;;4940073;28;20476;-84
2023/08/26 11:09:45;;;;;;;2.33;0.80;;;37.80;99.90;;;;;;4950825;28;20427;-84
2023/08/26 11:12:28;;;;;;;2.20;1.10;;;36.60;99.90;;;;;;4951424;28;20569;-84
2023/08/26 11:15:04;;;;;;;2.13;1.00;;;36.60;99.90;;;;;;4948223;28;20195;-84
2023/08/26 11:17:29;;;;;;;4.97;1.00;;;35.70;99.90;;;;;;4947759;28;20578;-84
2023/08/26 11:19:56;;;;;;;2.90;1.10;;;36.00;99.90;;;;;;4948562;28;20986;-84
2023/08/26 11:22:28;;;;;;;3.53;1.00;;;35.80;99.90;;;;;;4951533;28;20220;-84
2023/08/26 11:24:55;;;;;;;1.70;0.70;;;36.50;99.90;;;;;;4940353;28;20469;-85
2023/08/26 11:27:20;;;;;;;1.53;0.80;;;35.10;99.90;;;;;;4948004;28;20511;-85
2023/08/26 11:29:46;;;;;;;3.13;1.00;;;35.90;99.90;;;;;;4948335;28;20934;-85
2023/08/26 11:32:11;;;;;;;1.60;0.80;;;36.90;99.90;;;;;;4949387;28;20251;-85
2023/08/26 11:34:37;;;;;;;1.80;1.00;;;37.90;99.90;;;;;;4951234;28;20190;-85
2023/08/26 11:37:03;;;;;;;2.07;0.80;;;38.50;99.90;;;;;;4951454;28;20685;-85
2023/08/26 11:39:36;;;;;;;1.37;0.93;;;38.60;99.90;;;;;;4948820;28;20251;-85
2023/08/26 11:42:14;;;;;;;6.10;1.03;;;39.60;99.90;;;;;;4946649;28;20738;-85
2023/08/26 11:44:45;;;;;;;2.40;0.97;;;40.00;99.90;;;;;;4950619;28;20428;-84
2023/08/26 11:47:12;;;;;;;2.03;0.87;;;40.00;99.90;;;;;;4946490;28;21194;-85
2023/08/26 11:49:39;;;;;;;3.00;0.97;;;39.80;99.90;;;;;;4963891;28;20440;-85
2023/08/26 11:52:05;;;;;;;1.40;0.80;;;39.80;99.90;;;;;;4952372;28;20479;-86
2023/08/26 11:54:31;;;;;;;1.63;0.70;;;39.70;99.90;;;;;;4950890;29;20444;-85
2023/08/26 11:56:56;;;;;;;2.93;0.97;;;39.60;99.90;;;;;;4947666;28;20443;-85
2023/08/26 11:59:22;;;;;;;2.63;1.00;;;38.60;99.90;;;;;;4947123;28;20212;-85
2023/08/26 12:01:48;;;;;;;2.90;0.97;;;38.10;99.90;;;;;;4949936;28;20209;-85
2023/08/26 12:04:16;;;;;;;1.67;0.80;;;38.10;99.90;;;;;;4951056;28;20180;-85
2023/08/26 12:06:42;;;;;;;1.50;0.73;;;38.50;99.90;;;;;;4951113;28;20193;-85
2023/08/26 12:09:08;;;;;;;3.10;1.00;;;38.50;99.90;;;;;;4950134;28;20511;-85
2023/08/26 12:11:37;;;;;;;2.07;1.07;;;38.60;99.90;;;;;;4950292;28;21029;-85
2023/08/26 12:14:19;;;;;;;1.20;0.70;;;38.50;99.90;;;;;;4948190;28;20295;-85
2023/08/26 12:16:45;;;;;;;1.30;0.87;;;37.70;99.90;;;;;;4951769;28;20440;-85
2023/08/26 12:19:20;;;;;;;2.37;0.80;;;37.20;99.90;;;;;;4948518;28;20475;-85
2023/08/26 12:21:50;;;;;;;1.87;0.90;;;36.10;99.90;;;;;;4951193;28;20204;-86
2023/08/26 12:24:21;;;;;;;2.20;1.20;;;35.20;99.90;;;;;;4947583;28;20433;-86
2023/08/26 12:26:47;;;;;;;2.40;0.90;;;34.20;99.90;;;;;;4950262;28;20437;-86
2023/08/26 12:29:13;;;;;;;1.80;1.00;;;33.60;99.90;;;;;;4946878;28;20448;-86
2023/08/26 12:31:38;;;;;;;2.87;0.80;;;33.20;99.90;;;;;;4947739;28;20476;-85
2023/08/26 12:34:04;;;;;;;1.80;0.70;;;33.10;99.90;;;;;;4949987;28;20475;-85
2023/08/26 12:36:30;;;;;;;3.10;1.00;;;32.90;99.90;;;;;;4950140;28;21276;-84
2023/08/26 12:38:56;;;;;;;1.30;0.70;;;32.60;99.90;;;;;;4948181;28;20590;-86
2023/08/26 12:41:21;;;;;;;1.30;0.97;;;33.10;99.90;;;;;;4962583;28;20204;-86
2023/08/26 12:43:48;;;;;;;5.20;1.23;;;33.40;99.90;;;;;;4949882;28;20809;-86
2023/08/26 12:46:13;;;;;;;2.10;0.80;;;33.30;99.90;;;;;;4952732;28;20185;-85